sensor_id;sensor_type;location;lat;lon;timestamp;P1;durP1;ratioP1;P2;durP2;ratioP2
11303;SDS011;5707;49.588;12.148;2023-05-24T00:01:15;5.55;;;2.97;;
11303;SDS011;5707;49.588;12.148;2023-05-24T00:03:49;3.85;;;2.80;;
11303;SDS011;5707;49.588;12.148;2023-05-24T00:06:16;6.03;;;3.67;;
11303;SDS011;5707;49.588;12.148;2023-05-24T00:08:42;4.53;;;3.20;;
11303;SDS011;5707;49.588;12.148;2023-05-24T00:11:07;5.10;;;2.92;;
11303;SDS011;5707;49.588;12.148;2023-05-24T00:13:34;6.25;;;3.10;;
11303;SDS011;5707;49.588;12.148;2023-05-24T00:16:00;6.57;;;3.72;;
11303;SDS011;5707;49.588;12.148;2023-05-24T00:18:26;8.63;;;3.05;;
11303;SDS011;5707;49.588;12.148;2023-05-24T00:20:51;7.60;;;2.67;;
11303;SDS011;5707;49.588;12.148;2023-05-24T00:23:17;5.18;;;2.83;;
11303;SDS011;5707;49.588;12.148;2023-05-24T00:25:43;6.53;;;3.58;;
11303;SDS011;5707;49.588;12.148;2023-05-24T00:28:08;9.68;;;3.35;;
11303;SDS011;5707;49.588;12.148;2023-05-24T00:30:34;4.57;;;3.08;;
11303;SDS011;5707;49.588;12.148;2023-05-24T00:33:00;6.53;;;2.42;;
11303;SDS011;5707;49.588;12.148;2023-05-24T00:35:25;7.35;;;3.38;;
11303;SDS011;5707;49.588;12.148;2023-05-24T00:37:51;5.28;;;2.53;;
11303;SDS011;5707;49.588;12.148;2023-05-24T00:40:16;6.07;;;2.83;;
11303;SDS011;5707;49.588;12.148;2023-05-24T00:42:42;4.10;;;3.15;;
11303;SDS011;5707;49.588;12.148;2023-05-24T00:45:08;3.97;;;2.80;;
11303;SDS011;5707;49.588;12.148;2023-05-24T00:47:34;4.60;;;2.55;;
11303;SDS011;5707;49.588;12.148;2023-05-24T00:49:59;8.90;;;2.90;;
11303;SDS011;5707;49.588;12.148;2023-05-24T00:52:26;5.40;;;2.92;;
11303;SDS011;5707;49.588;12.148;2023-05-24T00:54:51;7.85;;;2.72;;
11303;SDS011;5707;49.588;12.148;2023-05-24T00:57:17;7.05;;;3.30;;
11303;SDS011;5707;49.588;12.148;2023-05-24T00:59:43;4.05;;;2.47;;
11303;SDS011;5707;49.588;12.148;2023-05-24T01:02:09;6.07;;;3.10;;
11303;SDS011;5707;49.588;12.148;2023-05-24T01:04:36;4.68;;;2.75;;
11303;SDS011;5707;49.588;12.148;2023-05-24T01:12:19;4.82;;;3.08;;
11303;SDS011;5707;49.588;12.148;2023-05-24T01:15:06;6.38;;;3.50;;
11303;SDS011;5707;49.588;12.148;2023-05-24T01:17:45;5.72;;;3.10;;
11303;SDS011;5707;49.588;12.148;2023-05-24T01:20:32;3.95;;;2.72;;
11303;SDS011;5707;49.588;12.148;2023-05-24T01:26:31;4.78;;;3.28;;
11303;SDS011;5707;49.588;12.148;2023-05-24T01:29:04;5.47;;;3.20;;
11303;SDS011;5707;49.588;12.148;2023-05-24T01:31:30;3.72;;;2.95;;
11303;SDS011;5707;49.588;12.148;2023-05-24T01:33:56;6.07;;;2.67;;
11303;SDS011;5707;49.588;12.148;2023-05-24T01:36:21;5.43;;;2.50;;
11303;SDS011;5707;49.588;12.148;2023-05-24T01:38:47;6.03;;;3.00;;
11303;SDS011;5707;49.588;12.148;2023-05-24T01:41:33;5.10;;;3.50;;
11303;SDS011;5707;49.588;12.148;2023-05-24T01:46:46;6.85;;;3.00;;
11303;SDS011;5707;49.588;12.148;2023-05-24T01:49:17;5.95;;;3.17;;
11303;SDS011;5707;49.588;12.148;2023-05-24T01:51:47;6.70;;;3.03;;
11303;SDS011;5707;49.588;12.148;2023-05-24T01:54:19;5.60;;;3.08;;
11303;SDS011;5707;49.588;12.148;2023-05-24T01:56:47;6.82;;;3.85;;
11303;SDS011;5707;49.588;12.148;2023-05-24T01:59:13;6.50;;;3.35;;
11303;SDS011;5707;49.588;12.148;2023-05-24T02:01:39;4.82;;;3.63;;
11303;SDS011;5707;49.588;12.148;2023-05-24T02:04:05;5.88;;;3.58;;
11303;SDS011;5707;49.588;12.148;2023-05-24T02:06:31;5.28;;;3.45;;
11303;SDS011;5707;49.588;12.148;2023-05-24T02:08:56;7.40;;;3.95;;
11303;SDS011;5707;49.588;12.148;2023-05-24T02:11:22;5.60;;;3.47;;
11303;SDS011;5707;49.588;12.148;2023-05-24T02:13:48;9.57;;;3.95;;
11303;SDS011;5707;49.588;12.148;2023-05-24T02:16:13;5.93;;;3.63;;
11303;SDS011;5707;49.588;12.148;2023-05-24T02:18:39;8.55;;;4.10;;
11303;SDS011;5707;49.588;12.148;2023-05-24T02:21:04;8.30;;;4.40;;
11303;SDS011;5707;49.588;12.148;2023-05-24T02:23:30;7.00;;;3.50;;
11303;SDS011;5707;49.588;12.148;2023-05-24T02:25:55;14.80;;;4.22;;
11303;SDS011;5707;49.588;12.148;2023-05-24T02:28:21;10.30;;;4.13;;
11303;SDS011;5707;49.588;12.148;2023-05-24T02:30:47;4.60;;;2.95;;
11303;SDS011;5707;49.588;12.148;2023-05-24T02:33:12;7.75;;;3.63;;
11303;SDS011;5707;49.588;12.148;2023-05-24T02:35:38;5.63;;;2.90;;
11303;SDS011;5707;49.588;12.148;2023-05-24T02:38:05;7.82;;;3.58;;
11303;SDS011;5707;49.588;12.148;2023-05-24T02:40:31;8.93;;;3.75;;
11303;SDS011;5707;49.588;12.148;2023-05-24T02:42:57;5.90;;;3.28;;
11303;SDS011;5707;49.588;12.148;2023-05-24T02:45:22;6.60;;;2.63;;
11303;SDS011;5707;49.588;12.148;2023-05-24T02:47:48;10.55;;;3.45;;
11303;SDS011;5707;49.588;12.148;2023-05-24T02:50:13;5.88;;;2.92;;
11303;SDS011;5707;49.588;12.148;2023-05-24T02:52:39;5.97;;;2.75;;
11303;SDS011;5707;49.588;12.148;2023-05-24T02:55:05;7.05;;;3.13;;
11303;SDS011;5707;49.588;12.148;2023-05-24T02:57:31;8.82;;;3.15;;
11303;SDS011;5707;49.588;12.148;2023-05-24T02:59:58;6.65;;;2.20;;
11303;SDS011;5707;49.588;12.148;2023-05-24T03:02:24;5.65;;;3.17;;
11303;SDS011;5707;49.588;12.148;2023-05-24T03:04:52;4.07;;;2.63;;
11303;SDS011;5707;49.588;12.148;2023-05-24T03:07:18;5.22;;;2.70;;
11303;SDS011;5707;49.588;12.148;2023-05-24T03:09:43;7.60;;;3.40;;
11303;SDS011;5707;49.588;12.148;2023-05-24T03:12:09;6.80;;;2.60;;
11303;SDS011;5707;49.588;12.148;2023-05-24T03:14:34;7.50;;;2.80;;
11303;SDS011;5707;49.588;12.148;2023-05-24T03:17:00;4.65;;;2.47;;
11303;SDS011;5707;49.588;12.148;2023-05-24T03:19:26;7.18;;;2.88;;
11303;SDS011;5707;49.588;12.148;2023-05-24T03:21:51;4.68;;;2.35;;
11303;SDS011;5707;49.588;12.148;2023-05-24T03:24:17;4.93;;;2.58;;
11303;SDS011;5707;49.588;12.148;2023-05-24T03:26:43;4.72;;;2.50;;
11303;SDS011;5707;49.588;12.148;2023-05-24T03:29:09;6.72;;;2.95;;
11303;SDS011;5707;49.588;12.148;2023-05-24T03:31:34;5.25;;;2.65;;
11303;SDS011;5707;49.588;12.148;2023-05-24T03:34:00;4.93;;;2.50;;
11303;SDS011;5707;49.588;12.148;2023-05-24T03:36:26;6.97;;;2.42;;
11303;SDS011;5707;49.588;12.148;2023-05-24T03:38:53;6.72;;;2.67;;
11303;SDS011;5707;49.588;12.148;2023-05-24T03:41:19;5.22;;;2.65;;
11303;SDS011;5707;49.588;12.148;2023-05-24T03:43:44;5.53;;;2.50;;
11303;SDS011;5707;49.588;12.148;2023-05-24T03:46:10;6.30;;;2.67;;
11303;SDS011;5707;49.588;12.148;2023-05-24T03:48:35;6.90;;;2.40;;
11303;SDS011;5707;49.588;12.148;2023-05-24T03:51:01;7.93;;;2.42;;
11303;SDS011;5707;49.588;12.148;2023-05-24T03:53:27;4.63;;;2.05;;
11303;SDS011;5707;49.588;12.148;2023-05-24T03:55:52;5.78;;;2.45;;
11303;SDS011;5707;49.588;12.148;2023-05-24T03:58:18;5.53;;;2.63;;
11303;SDS011;5707;49.588;12.148;2023-05-24T04:00:44;9.32;;;2.78;;
11303;SDS011;5707;49.588;12.148;2023-05-24T04:03:09;7.53;;;2.90;;
11303;SDS011;5707;49.588;12.148;2023-05-24T04:05:36;4.30;;;2.17;;
11303;SDS011;5707;49.588;12.148;2023-05-24T04:08:01;4.93;;;2.50;;
11303;SDS011;5707;49.588;12.148;2023-05-24T04:10:27;5.50;;;2.90;;
11303;SDS011;5707;49.588;12.148;2023-05-24T04:12:53;4.40;;;2.42;;
11303;SDS011;5707;49.588;12.148;2023-05-24T04:15:20;4.25;;;2.28;;
11303;SDS011;5707;49.588;12.148;2023-05-24T04:17:47;4.97;;;2.42;;
11303;SDS011;5707;49.588;12.148;2023-05-24T04:20:18;6.35;;;2.67;;
11303;SDS011;5707;49.588;12.148;2023-05-24T04:22:44;5.32;;;2.63;;
11303;SDS011;5707;49.588;12.148;2023-05-24T04:25:10;5.38;;;2.10;;
11303;SDS011;5707;49.588;12.148;2023-05-24T04:27:35;5.95;;;2.47;;
11303;SDS011;5707;49.588;12.148;2023-05-24T04:30:01;9.75;;;3.45;;
11303;SDS011;5707;49.588;12.148;2023-05-24T04:32:27;4.65;;;2.13;;
11303;SDS011;5707;49.588;12.148;2023-05-24T04:34:54;5.60;;;2.40;;
11303;SDS011;5707;49.588;12.148;2023-05-24T04:37:20;5.63;;;2.40;;
11303;SDS011;5707;49.588;12.148;2023-05-24T04:39:46;7.18;;;2.50;;
11303;SDS011;5707;49.588;12.148;2023-05-24T04:42:11;4.78;;;1.85;;
11303;SDS011;5707;49.588;12.148;2023-05-24T04:44:39;4.38;;;2.40;;
11303;SDS011;5707;49.588;12.148;2023-05-24T04:47:05;7.22;;;2.80;;
11303;SDS011;5707;49.588;12.148;2023-05-24T04:49:31;4.22;;;2.30;;
11303;SDS011;5707;49.588;12.148;2023-05-24T04:51:57;6.18;;;2.60;;
11303;SDS011;5707;49.588;12.148;2023-05-24T04:54:23;4.82;;;2.38;;
11303;SDS011;5707;49.588;12.148;2023-05-24T04:56:49;6.40;;;2.80;;
11303;SDS011;5707;49.588;12.148;2023-05-24T04:59:14;4.07;;;2.47;;
11303;SDS011;5707;49.588;12.148;2023-05-24T05:01:40;6.07;;;2.63;;
11303;SDS011;5707;49.588;12.148;2023-05-24T05:04:05;5.88;;;2.78;;
11303;SDS011;5707;49.588;12.148;2023-05-24T05:06:31;5.72;;;2.97;;
11303;SDS011;5707;49.588;12.148;2023-05-24T05:09:02;3.97;;;2.40;;
11303;SDS011;5707;49.588;12.148;2023-05-24T05:11:28;6.80;;;2.58;;
11303;SDS011;5707;49.588;12.148;2023-05-24T05:13:54;6.30;;;3.00;;
11303;SDS011;5707;49.588;12.148;2023-05-24T05:16:19;5.32;;;2.28;;
11303;SDS011;5707;49.588;12.148;2023-05-24T05:18:45;5.88;;;2.88;;
11303;SDS011;5707;49.588;12.148;2023-05-24T05:21:10;6.25;;;2.22;;
11303;SDS011;5707;49.588;12.148;2023-05-24T05:23:36;7.28;;;2.67;;
11303;SDS011;5707;49.588;12.148;2023-05-24T05:26:03;6.13;;;2.17;;
11303;SDS011;5707;49.588;12.148;2023-05-24T05:28:30;8.10;;;2.60;;
11303;SDS011;5707;49.588;12.148;2023-05-24T05:30:56;4.50;;;2.60;;
11303;SDS011;5707;49.588;12.148;2023-05-24T05:33:22;6.55;;;2.50;;
11303;SDS011;5707;49.588;12.148;2023-05-24T05:35:48;6.43;;;2.75;;
11303;SDS011;5707;49.588;12.148;2023-05-24T05:38:13;7.68;;;2.75;;
11303;SDS011;5707;49.588;12.148;2023-05-24T05:40:39;6.95;;;3.10;;
11303;SDS011;5707;49.588;12.148;2023-05-24T05:43:04;4.97;;;2.40;;
11303;SDS011;5707;49.588;12.148;2023-05-24T05:45:32;5.30;;;2.33;;
11303;SDS011;5707;49.588;12.148;2023-05-24T05:47:57;4.47;;;2.42;;
11303;SDS011;5707;49.588;12.148;2023-05-24T05:50:23;6.93;;;2.63;;
11303;SDS011;5707;49.588;12.148;2023-05-24T05:52:48;5.13;;;2.35;;
11303;SDS011;5707;49.588;12.148;2023-05-24T05:55:14;4.45;;;2.00;;
11303;SDS011;5707;49.588;12.148;2023-05-24T05:57:40;5.40;;;2.35;;
11303;SDS011;5707;49.588;12.148;2023-05-24T06:00:05;4.25;;;2.22;;
11303;SDS011;5707;49.588;12.148;2023-05-24T06:02:31;5.60;;;2.50;;
11303;SDS011;5707;49.588;12.148;2023-05-24T06:04:57;6.43;;;2.65;;
11303;SDS011;5707;49.588;12.148;2023-05-24T06:07:22;6.53;;;2.33;;
11303;SDS011;5707;49.588;12.148;2023-05-24T06:09:48;4.78;;;2.63;;
11303;SDS011;5707;49.588;12.148;2023-05-24T06:12:14;7.03;;;2.92;;
11303;SDS011;5707;49.588;12.148;2023-05-24T06:14:39;5.43;;;2.38;;
11303;SDS011;5707;49.588;12.148;2023-05-24T06:17:05;6.75;;;3.03;;
11303;SDS011;5707;49.588;12.148;2023-05-24T06:19:31;6.38;;;2.67;;
11303;SDS011;5707;49.588;12.148;2023-05-24T06:21:57;4.13;;;2.30;;
11303;SDS011;5707;49.588;12.148;2023-05-24T06:24:23;5.20;;;2.45;;
11303;SDS011;5707;49.588;12.148;2023-05-24T06:26:49;4.03;;;2.10;;
11303;SDS011;5707;49.588;12.148;2023-05-24T06:29:15;3.88;;;2.25;;
11303;SDS011;5707;49.588;12.148;2023-05-24T06:31:43;4.70;;;2.22;;
11303;SDS011;5707;49.588;12.148;2023-05-24T06:34:11;4.57;;;2.20;;
11303;SDS011;5707;49.588;12.148;2023-05-24T06:36:43;5.30;;;2.20;;
11303;SDS011;5707;49.588;12.148;2023-05-24T06:39:14;6.55;;;2.55;;
11303;SDS011;5707;49.588;12.148;2023-05-24T06:41:40;6.43;;;2.72;;
11303;SDS011;5707;49.588;12.148;2023-05-24T06:44:08;4.97;;;2.00;;
11303;SDS011;5707;49.588;12.148;2023-05-24T06:46:34;7.43;;;2.72;;
11303;SDS011;5707;49.588;12.148;2023-05-24T06:49:00;5.55;;;2.25;;
11303;SDS011;5707;49.588;12.148;2023-05-24T06:51:26;8.85;;;2.60;;
11303;SDS011;5707;49.588;12.148;2023-05-24T06:53:51;4.60;;;2.20;;
11303;SDS011;5707;49.588;12.148;2023-05-24T06:56:17;6.43;;;2.35;;
11303;SDS011;5707;49.588;12.148;2023-05-24T06:58:42;5.60;;;2.50;;
11303;SDS011;5707;49.588;12.148;2023-05-24T07:01:10;5.53;;;2.03;;
11303;SDS011;5707;49.588;12.148;2023-05-24T07:03:36;5.70;;;2.78;;
11303;SDS011;5707;49.588;12.148;2023-05-24T07:06:01;4.07;;;2.50;;
11303;SDS011;5707;49.588;12.148;2023-05-24T07:08:28;4.80;;;2.30;;
11303;SDS011;5707;49.588;12.148;2023-05-24T07:10:53;7.22;;;2.47;;
11303;SDS011;5707;49.588;12.148;2023-05-24T07:13:19;6.72;;;2.53;;
11303;SDS011;5707;49.588;12.148;2023-05-24T07:15:45;3.65;;;2.10;;
11303;SDS011;5707;49.588;12.148;2023-05-24T07:18:11;5.45;;;2.35;;
11303;SDS011;5707;49.588;12.148;2023-05-24T07:20:37;5.97;;;2.40;;
11303;SDS011;5707;49.588;12.148;2023-05-24T07:23:03;5.15;;;1.98;;
11303;SDS011;5707;49.588;12.148;2023-05-24T07:25:29;6.00;;;2.30;;
11303;SDS011;5707;49.588;12.148;2023-05-24T07:27:55;3.50;;;2.22;;
11303;SDS011;5707;49.588;12.148;2023-05-24T07:30:20;5.97;;;2.45;;
11303;SDS011;5707;49.588;12.148;2023-05-24T07:32:46;7.18;;;2.67;;
11303;SDS011;5707;49.588;12.148;2023-05-24T07:35:12;6.18;;;2.45;;
11303;SDS011;5707;49.588;12.148;2023-05-24T07:37:38;6.47;;;2.45;;
11303;SDS011;5707;49.588;12.148;2023-05-24T07:40:04;7.47;;;2.58;;
11303;SDS011;5707;49.588;12.148;2023-05-24T07:42:34;3.80;;;2.30;;
11303;SDS011;5707;49.588;12.148;2023-05-24T07:45:00;5.47;;;2.50;;
11303;SDS011;5707;49.588;12.148;2023-05-24T07:47:26;6.63;;;2.80;;
11303;SDS011;5707;49.588;12.148;2023-05-24T07:49:52;7.70;;;2.47;;
11303;SDS011;5707;49.588;12.148;2023-05-24T07:52:17;5.13;;;2.60;;
11303;SDS011;5707;49.588;12.148;2023-05-24T07:54:44;6.13;;;2.33;;
11303;SDS011;5707;49.588;12.148;2023-05-24T07:57:10;5.93;;;2.05;;
11303;SDS011;5707;49.588;12.148;2023-05-24T07:59:36;5.72;;;2.28;;
11303;SDS011;5707;49.588;12.148;2023-05-24T08:02:02;3.80;;;2.25;;
11303;SDS011;5707;49.588;12.148;2023-05-24T08:04:29;4.75;;;2.47;;
11303;SDS011;5707;49.588;12.148;2023-05-24T08:06:56;3.65;;;1.95;;
11303;SDS011;5707;49.588;12.148;2023-05-24T08:09:23;5.93;;;2.10;;
11303;SDS011;5707;49.588;12.148;2023-05-24T08:11:48;4.55;;;2.20;;
11303;SDS011;5707;49.588;12.148;2023-05-24T08:14:14;4.50;;;2.20;;
11303;SDS011;5707;49.588;12.148;2023-05-24T08:16:40;5.90;;;2.60;;
11303;SDS011;5707;49.588;12.148;2023-05-24T08:19:05;4.68;;;2.95;;
11303;SDS011;5707;49.588;12.148;2023-05-24T08:21:31;6.82;;;2.00;;
11303;SDS011;5707;49.588;12.148;2023-05-24T08:23:57;6.90;;;2.40;;
11303;SDS011;5707;49.588;12.148;2023-05-24T08:26:24;5.00;;;2.10;;
11303;SDS011;5707;49.588;12.148;2023-05-24T08:28:50;3.50;;;2.03;;
11303;SDS011;5707;49.588;12.148;2023-05-24T08:31:16;5.05;;;2.08;;
11303;SDS011;5707;49.588;12.148;2023-05-24T08:33:42;4.97;;;1.85;;
11303;SDS011;5707;49.588;12.148;2023-05-24T08:36:08;5.65;;;2.40;;
11303;SDS011;5707;49.588;12.148;2023-05-24T08:38:34;5.00;;;2.10;;
11303;SDS011;5707;49.588;12.148;2023-05-24T08:41:00;8.00;;;2.60;;
11303;SDS011;5707;49.588;12.148;2023-05-24T08:43:29;3.22;;;1.70;;
11303;SDS011;5707;49.588;12.148;2023-05-24T08:45:55;5.85;;;1.90;;
11303;SDS011;5707;49.588;12.148;2023-05-24T08:48:22;4.13;;;2.10;;
11303;SDS011;5707;49.588;12.148;2023-05-24T08:50:50;4.35;;;2.00;;
11303;SDS011;5707;49.588;12.148;2023-05-24T08:53:17;5.90;;;3.30;;
11303;SDS011;5707;49.588;12.148;2023-05-24T08:55:45;4.75;;;1.90;;
11303;SDS011;5707;49.588;12.148;2023-05-24T08:58:12;3.17;;;1.92;;
11303;SDS011;5707;49.588;12.148;2023-05-24T09:00:38;4.43;;;1.92;;
11303;SDS011;5707;49.588;12.148;2023-05-24T09:03:03;5.57;;;1.77;;
11303;SDS011;5707;49.588;12.148;2023-05-24T09:05:30;3.42;;;1.65;;
11303;SDS011;5707;49.588;12.148;2023-05-24T09:07:57;5.68;;;1.92;;
11303;SDS011;5707;49.588;12.148;2023-05-24T09:10:24;6.53;;;1.95;;
11303;SDS011;5707;49.588;12.148;2023-05-24T09:12:56;4.90;;;1.90;;
11303;SDS011;5707;49.588;12.148;2023-05-24T09:15:22;5.07;;;2.00;;
11303;SDS011;5707;49.588;12.148;2023-05-24T09:17:48;3.90;;;1.90;;
11303;SDS011;5707;49.588;12.148;2023-05-24T09:20:13;7.63;;;1.90;;
11303;SDS011;5707;49.588;12.148;2023-05-24T09:22:40;7.85;;;1.85;;
11303;SDS011;5707;49.588;12.148;2023-05-24T09:25:06;4.28;;;1.95;;
11303;SDS011;5707;49.588;12.148;2023-05-24T09:27:33;5.47;;;1.60;;
11303;SDS011;5707;49.588;12.148;2023-05-24T09:29:59;4.85;;;1.83;;
11303;SDS011;5707;49.588;12.148;2023-05-24T09:32:25;6.35;;;1.88;;
11303;SDS011;5707;49.588;12.148;2023-05-24T09:34:52;4.65;;;1.75;;
11303;SDS011;5707;49.588;12.148;2023-05-24T09:37:22;5.18;;;2.25;;
11303;SDS011;5707;49.588;12.148;2023-05-24T09:39:51;6.00;;;2.10;;
11303;SDS011;5707;49.588;12.148;2023-05-24T09:42:17;3.72;;;2.00;;
11303;SDS011;5707;49.588;12.148;2023-05-24T09:44:48;5.60;;;2.50;;
11303;SDS011;5707;49.588;12.148;2023-05-24T09:47:28;3.92;;;1.83;;
11303;SDS011;5707;49.588;12.148;2023-05-24T09:49:54;5.05;;;1.67;;
11303;SDS011;5707;49.588;12.148;2023-05-24T09:52:20;3.75;;;1.80;;
11303;SDS011;5707;49.588;12.148;2023-05-24T09:54:46;2.72;;;1.58;;
11303;SDS011;5707;49.588;12.148;2023-05-24T09:57:14;2.63;;;1.52;;
11303;SDS011;5707;49.588;12.148;2023-05-24T09:59:40;5.10;;;2.15;;
11303;SDS011;5707;49.588;12.148;2023-05-24T10:02:08;3.78;;;1.85;;
11303;SDS011;5707;49.588;12.148;2023-05-24T10:04:35;6.35;;;1.80;;
11303;SDS011;5707;49.588;12.148;2023-05-24T10:07:02;3.58;;;1.80;;
11303;SDS011;5707;49.588;12.148;2023-05-24T10:09:28;2.00;;;1.50;;
11303;SDS011;5707;49.588;12.148;2023-05-24T10:12:00;3.53;;;1.75;;
11303;SDS011;5707;49.588;12.148;2023-05-24T10:14:33;4.50;;;2.00;;
11303;SDS011;5707;49.588;12.148;2023-05-24T10:17:03;4.15;;;1.80;;
11303;SDS011;5707;49.588;12.148;2023-05-24T10:19:33;7.38;;;2.25;;
11303;SDS011;5707;49.588;12.148;2023-05-24T10:21:59;4.22;;;2.00;;
11303;SDS011;5707;49.588;12.148;2023-05-24T10:24:31;4.90;;;1.90;;
11303;SDS011;5707;49.588;12.148;2023-05-24T10:26:59;6.07;;;1.90;;
11303;SDS011;5707;49.588;12.148;2023-05-24T10:29:35;5.20;;;1.90;;
11303;SDS011;5707;49.588;12.148;2023-05-24T10:32:15;4.80;;;2.30;;
11303;SDS011;5707;49.588;12.148;2023-05-24T10:34:42;4.65;;;1.80;;
11303;SDS011;5707;49.588;12.148;2023-05-24T10:37:09;4.10;;;2.33;;
11303;SDS011;5707;49.588;12.148;2023-05-24T10:39:35;6.32;;;2.45;;
11303;SDS011;5707;49.588;12.148;2023-05-24T10:42:04;6.57;;;3.30;;
11303;SDS011;5707;49.588;12.148;2023-05-24T10:44:31;7.00;;;2.38;;
11303;SDS011;5707;49.588;12.148;2023-05-24T10:47:06;2.80;;;1.60;;
11303;SDS011;5707;49.588;12.148;2023-05-24T10:49:33;4.57;;;1.73;;
11303;SDS011;5707;49.588;12.148;2023-05-24T10:52:00;5.88;;;1.98;;
11303;SDS011;5707;49.588;12.148;2023-05-24T10:54:27;5.15;;;2.45;;
11303;SDS011;5707;49.588;12.148;2023-05-24T10:56:53;3.05;;;1.63;;
11303;SDS011;5707;49.588;12.148;2023-05-24T10:59:22;7.82;;;2.15;;
11303;SDS011;5707;49.588;12.148;2023-05-24T11:01:57;2.22;;;1.70;;
11303;SDS011;5707;49.588;12.148;2023-05-24T11:04:24;4.32;;;2.10;;
11303;SDS011;5707;49.588;12.148;2023-05-24T11:07:00;7.13;;;1.90;;
11303;SDS011;5707;49.588;12.148;2023-05-24T11:09:27;4.07;;;2.15;;
11303;SDS011;5707;49.588;12.148;2023-05-24T11:11:54;3.65;;;2.00;;
11303;SDS011;5707;49.588;12.148;2023-05-24T11:14:28;11.25;;;3.75;;
11303;SDS011;5707;49.588;12.148;2023-05-24T11:16:54;9.32;;;4.85;;
11303;SDS011;5707;49.588;12.148;2023-05-24T11:22:22;5.35;;;1.95;;
11303;SDS011;5707;49.588;12.148;2023-05-24T11:24:50;5.25;;;2.05;;
11303;SDS011;5707;49.588;12.148;2023-05-24T11:27:17;4.85;;;2.10;;
11303;SDS011;5707;49.588;12.148;2023-05-24T11:29:43;3.35;;;1.60;;
11303;SDS011;5707;49.588;12.148;2023-05-24T11:32:13;4.88;;;2.05;;
11303;SDS011;5707;49.588;12.148;2023-05-24T11:34:40;3.60;;;1.88;;
11303;SDS011;5707;49.588;12.148;2023-05-24T11:37:09;4.90;;;2.15;;
11303;SDS011;5707;49.588;12.148;2023-05-24T11:39:35;5.03;;;2.15;;
11303;SDS011;5707;49.588;12.148;2023-05-24T11:42:04;3.65;;;1.88;;
11303;SDS011;5707;49.588;12.148;2023-05-24T11:44:33;3.55;;;2.17;;
11303;SDS011;5707;49.588;12.148;2023-05-24T11:47:02;6.30;;;2.20;;
11303;SDS011;5707;49.588;12.148;2023-05-24T11:49:29;9.65;;;2.75;;
11303;SDS011;5707;49.588;12.148;2023-05-24T11:51:55;5.32;;;2.38;;
11303;SDS011;5707;49.588;12.148;2023-05-24T11:54:23;5.68;;;2.40;;
11303;SDS011;5707;49.588;12.148;2023-05-24T11:56:49;4.28;;;1.95;;
11303;SDS011;5707;49.588;12.148;2023-05-24T11:59:17;3.70;;;1.50;;
11303;SDS011;5707;49.588;12.148;2023-05-24T12:01:46;6.82;;;2.20;;
11303;SDS011;5707;49.588;12.148;2023-05-24T12:04:12;3.85;;;1.90;;
11303;SDS011;5707;49.588;12.148;2023-05-24T12:06:39;3.95;;;1.75;;
11303;SDS011;5707;49.588;12.148;2023-05-24T12:09:09;4.38;;;2.15;;
11303;SDS011;5707;49.588;12.148;2023-05-24T12:11:37;3.17;;;1.40;;
11303;SDS011;5707;49.588;12.148;2023-05-24T12:14:04;5.93;;;2.25;;
11303;SDS011;5707;49.588;12.148;2023-05-24T12:16:31;7.30;;;1.95;;
11303;SDS011;5707;49.588;12.148;2023-05-24T12:18:57;2.47;;;1.65;;
11303;SDS011;5707;49.588;12.148;2023-05-24T12:21:23;4.75;;;1.90;;
11303;SDS011;5707;49.588;12.148;2023-05-24T12:23:49;4.78;;;2.33;;
11303;SDS011;5707;49.588;12.148;2023-05-24T12:26:16;3.85;;;2.15;;
11303;SDS011;5707;49.588;12.148;2023-05-24T12:28:44;4.53;;;2.10;;
11303;SDS011;5707;49.588;12.148;2023-05-24T12:31:12;5.85;;;2.10;;
11303;SDS011;5707;49.588;12.148;2023-05-24T12:33:38;4.13;;;2.25;;
11303;SDS011;5707;49.588;12.148;2023-05-24T12:36:03;4.57;;;2.10;;
11303;SDS011;5707;49.588;12.148;2023-05-24T12:38:30;6.55;;;2.42;;
11303;SDS011;5707;49.588;12.148;2023-05-24T12:40:55;6.32;;;2.30;;
11303;SDS011;5707;49.588;12.148;2023-05-24T12:43:21;4.22;;;1.95;;
11303;SDS011;5707;49.588;12.148;2023-05-24T12:45:46;3.67;;;1.98;;
11303;SDS011;5707;49.588;12.148;2023-05-24T12:48:12;4.00;;;2.17;;
11303;SDS011;5707;49.588;12.148;2023-05-24T12:50:38;6.47;;;2.45;;
11303;SDS011;5707;49.588;12.148;2023-05-24T12:53:04;9.90;;;2.50;;
11303;SDS011;5707;49.588;12.148;2023-05-24T12:55:29;5.25;;;2.05;;
11303;SDS011;5707;49.588;12.148;2023-05-24T12:57:55;3.35;;;1.92;;
11303;SDS011;5707;49.588;12.148;2023-05-24T13:00:25;4.40;;;2.05;;
11303;SDS011;5707;49.588;12.148;2023-05-24T13:02:52;8.02;;;2.33;;
11303;SDS011;5707;49.588;12.148;2023-05-24T13:05:20;7.78;;;2.28;;
11303;SDS011;5707;49.588;12.148;2023-05-24T13:07:46;3.70;;;1.70;;
11303;SDS011;5707;49.588;12.148;2023-05-24T13:10:12;3.88;;;2.08;;
11303;SDS011;5707;49.588;12.148;2023-05-24T13:12:38;3.03;;;2.03;;
11303;SDS011;5707;49.588;12.148;2023-05-24T13:15:05;10.02;;;2.42;;
11303;SDS011;5707;49.588;12.148;2023-05-24T13:17:32;5.82;;;2.20;;
11303;SDS011;5707;49.588;12.148;2023-05-24T13:20:00;7.00;;;2.10;;
11303;SDS011;5707;49.588;12.148;2023-05-24T13:22:30;3.80;;;2.20;;
11303;SDS011;5707;49.588;12.148;2023-05-24T13:24:55;4.63;;;2.13;;
11303;SDS011;5707;49.588;12.148;2023-05-24T13:27:21;5.10;;;1.85;;
11303;SDS011;5707;49.588;12.148;2023-05-24T13:29:46;4.65;;;2.22;;
11303;SDS011;5707;49.588;12.148;2023-05-24T13:32:13;4.57;;;2.20;;
11303;SDS011;5707;49.588;12.148;2023-05-24T13:34:38;5.55;;;2.08;;
11303;SDS011;5707;49.588;12.148;2023-05-24T13:37:04;3.47;;;2.03;;
11303;SDS011;5707;49.588;12.148;2023-05-24T13:39:31;3.42;;;1.70;;
11303;SDS011;5707;49.588;12.148;2023-05-24T13:41:59;7.20;;;2.22;;
11303;SDS011;5707;49.588;12.148;2023-05-24T13:44:25;6.57;;;2.30;;
11303;SDS011;5707;49.588;12.148;2023-05-24T13:46:52;4.45;;;2.20;;
11303;SDS011;5707;49.588;12.148;2023-05-24T13:49:18;6.05;;;2.22;;
11303;SDS011;5707;49.588;12.148;2023-05-24T13:51:44;5.57;;;2.08;;
11303;SDS011;5707;49.588;12.148;2023-05-24T13:54:10;3.35;;;1.92;;
11303;SDS011;5707;49.588;12.148;2023-05-24T13:56:36;4.07;;;2.55;;
11303;SDS011;5707;49.588;12.148;2023-05-24T13:59:03;6.53;;;2.30;;
11303;SDS011;5707;49.588;12.148;2023-05-24T14:01:30;5.13;;;2.38;;
11303;SDS011;5707;49.588;12.148;2023-05-24T14:03:56;3.67;;;2.30;;
11303;SDS011;5707;49.588;12.148;2023-05-24T14:06:22;5.72;;;2.45;;
11303;SDS011;5707;49.588;12.148;2023-05-24T14:08:47;3.70;;;2.55;;
11303;SDS011;5707;49.588;12.148;2023-05-24T14:11:13;4.35;;;2.08;;
11303;SDS011;5707;49.588;12.148;2023-05-24T14:13:39;4.38;;;2.65;;
11303;SDS011;5707;49.588;12.148;2023-05-24T14:16:06;3.10;;;2.22;;
11303;SDS011;5707;49.588;12.148;2023-05-24T14:18:32;5.35;;;2.63;;
11303;SDS011;5707;49.588;12.148;2023-05-24T14:20:57;4.88;;;2.25;;
11303;SDS011;5707;49.588;12.148;2023-05-24T14:23:23;5.15;;;2.78;;
11303;SDS011;5707;49.588;12.148;2023-05-24T14:25:49;4.82;;;2.08;;
11303;SDS011;5707;49.588;12.148;2023-05-24T14:28:16;5.00;;;2.10;;
11303;SDS011;5707;49.588;12.148;2023-05-24T14:30:41;5.78;;;2.53;;
11303;SDS011;5707;49.588;12.148;2023-05-24T14:33:07;3.17;;;2.15;;
11303;SDS011;5707;49.588;12.148;2023-05-24T14:35:35;7.43;;;2.28;;
11303;SDS011;5707;49.588;12.148;2023-05-24T14:38:03;4.95;;;2.03;;
11303;SDS011;5707;49.588;12.148;2023-05-24T14:40:30;5.32;;;2.00;;
11303;SDS011;5707;49.588;12.148;2023-05-24T14:42:57;4.63;;;2.22;;
11303;SDS011;5707;49.588;12.148;2023-05-24T14:45:30;4.03;;;2.10;;
11303;SDS011;5707;49.588;12.148;2023-05-24T14:47:55;4.32;;;2.30;;
11303;SDS011;5707;49.588;12.148;2023-05-24T14:50:21;4.03;;;1.92;;
11303;SDS011;5707;49.588;12.148;2023-05-24T14:52:47;4.82;;;1.83;;
11303;SDS011;5707;49.588;12.148;2023-05-24T14:55:13;5.05;;;2.55;;
11303;SDS011;5707;49.588;12.148;2023-05-24T14:57:38;4.35;;;2.30;;
11303;SDS011;5707;49.588;12.148;2023-05-24T15:00:05;4.10;;;2.80;;